createdAt,value
2022-09-15T00:00:03.147Z,13.04
2022-09-15T00:05:02.466Z,13.09
2022-09-15T00:10:03.572Z,13.12
2022-09-15T00:15:02.839Z,13.2
2022-09-15T00:20:02.641Z,13.35
2022-09-15T00:25:02.979Z,13.27
2022-09-15T00:30:08.831Z,13.1
2022-09-15T00:35:03.279Z,13.02
2022-09-15T00:40:03.304Z,12.89
2022-09-15T00:45:03.342Z,12.76
2022-09-15T00:50:03.505Z,12.76
2022-09-15T00:55:04.092Z,12.69
2022-09-15T01:00:02.876Z,12.69
2022-09-15T01:05:03.565Z,12.72
2022-09-15T01:10:02.948Z,12.83
2022-09-15T01:15:03.688Z,12.76
2022-09-15T01:20:03.446Z,12.8
2022-09-15T01:25:02.711Z,13.08
2022-09-15T01:30:03.662Z,13.13
2022-09-15T01:35:02.953Z,13.15
2022-09-15T01:40:03.308Z,13.1
2022-09-15T01:45:02.776Z,13.11
2022-09-15T01:50:03.182Z,13.11
2022-09-15T01:55:03.645Z,13.14
2022-09-15T02:00:03.471Z,13.02
2022-09-15T02:05:02.854Z,12.76
2022-09-15T02:10:02.850Z,12.67
2022-09-15T02:15:03.303Z,12.38
2022-09-15T02:20:03.182Z,12.33
2022-09-15T02:25:02.814Z,12.4
2022-09-15T02:30:02.746Z,12.31
2022-09-15T02:35:03.056Z,12.02
2022-09-15T02:40:03.221Z,11.93
2022-09-15T02:45:02.502Z,11.83
2022-09-15T02:50:03.578Z,11.79
2022-09-15T02:55:04.519Z,11.56
2022-09-15T03:00:03.367Z,11.67
2022-09-15T03:05:02.679Z,12.16
2022-09-15T03:10:03.588Z,12.09
2022-09-15T03:15:03.057Z,12.06
2022-09-15T03:20:03.032Z,12.08
2022-09-15T03:25:02.374Z,11.96
2022-09-15T03:30:03.470Z,11.32
2022-09-15T03:35:03.344Z,11.29
2022-09-15T03:40:02.934Z,11.09
2022-09-15T03:45:02.766Z,11.11
2022-09-15T03:50:03.225Z,11.24
2022-09-15T03:55:03.775Z,11.48
2022-09-15T04:00:02.615Z,11.4
2022-09-15T04:05:03.491Z,11.46
2022-09-15T04:10:02.933Z,11.59
2022-09-15T04:15:03.085Z,11.78
2022-09-15T04:20:02.706Z,11.95
2022-09-15T04:25:03.781Z,12.07
2022-09-15T04:30:03.020Z,12.27
2022-09-15T04:35:02.899Z,12.53
2022-09-15T04:40:02.757Z,12.67
2022-09-15T04:45:02.714Z,12.68
2022-09-15T04:50:03.088Z,12.62
2022-09-15T04:55:03.831Z,12.58
2022-09-15T05:00:02.426Z,12.53
2022-09-15T05:05:03.391Z,12.48
2022-09-15T05:10:02.788Z,12.4
2022-09-15T05:15:02.758Z,12.3
2022-09-15T05:20:03.276Z,12.24
2022-09-15T05:25:03.353Z,12.2
2022-09-15T05:30:38.858Z,12.32
2022-09-15T05:35:03.107Z,12.54
2022-09-15T05:40:09.384Z,12.59
2022-09-15T05:45:02.956Z,12.66
2022-09-15T05:50:02.745Z,12.68
2022-09-15T05:55:04.127Z,12.89
2022-09-15T06:00:03.139Z,12.76
2022-09-15T06:05:02.749Z,13.04
2022-09-15T06:10:02.317Z,13.69
2022-09-15T06:15:03.021Z,13.78
2022-09-15T06:20:02.939Z,13.65
2022-09-15T06:25:02.372Z,13.26
2022-09-15T06:30:03.305Z,13.71
2022-09-15T06:35:02.730Z,14.5
2022-09-15T06:40:03.100Z,15.17
2022-09-15T06:45:02.412Z,14.2
2022-09-15T06:50:03.337Z,14.19
2022-09-15T06:55:03.808Z,14.21
2022-09-15T07:00:03.040Z,14.52
2022-09-15T07:05:03.147Z,14.27
2022-09-15T07:10:03.153Z,14.67
2022-09-15T07:15:02.804Z,15.02
2022-09-15T07:20:03.483Z,14.76
2022-09-15T07:25:02.841Z,14.81
2022-09-15T07:30:02.784Z,15.22
2022-09-15T07:35:03.169Z,15.28
2022-09-15T07:40:03.474Z,15.58
2022-09-15T07:45:02.554Z,15.37
2022-09-15T07:50:03.471Z,15.68
2022-09-15T07:55:03.968Z,16.26
2022-09-15T08:00:02.824Z,16.29
2022-09-15T08:05:03.149Z,16.56
2022-09-15T08:10:03.134Z,16.75
2022-09-15T08:15:02.537Z,16.95
2022-09-15T08:20:03.514Z,16.92
2022-09-15T08:25:02.895Z,17.08
2022-09-15T08:30:02.603Z,17.43
2022-09-15T08:35:03.281Z,17.31
2022-09-15T08:40:03.558Z,17.14
2022-09-15T08:45:02.788Z,17.63
2022-09-15T08:50:03.579Z,17.33
2022-09-15T08:55:04.411Z,17.16
2022-09-15T09:00:02.973Z,17.02
2022-09-15T09:05:03.263Z,16.63
2022-09-15T09:10:03.254Z,16.59
2022-09-15T09:15:02.663Z,16.69
2022-09-15T09:20:02.701Z,16.78
2022-09-15T09:25:28.695Z,18.15
2022-09-15T09:30:03.148Z,17.84
2022-09-15T09:35:03.036Z,17.51
2022-09-15T09:40:02.613Z,17.55
2022-09-15T09:45:03.416Z,18.09
2022-09-15T09:50:03.023Z,17.44
2022-09-15T09:55:03.443Z,17.29
2022-09-15T10:00:03.081Z,17.22
2022-09-15T10:05:03.507Z,17.22
2022-09-15T10:10:02.425Z,17.12
2022-09-15T10:15:03.495Z,17
2022-09-15T10:20:02.904Z,16.81
2022-09-15T10:25:02.841Z,16.88
2022-09-15T10:30:03.274Z,17.24
2022-09-15T10:35:03.170Z,18.05
2022-09-15T10:40:02.671Z,18.19
2022-09-15T10:45:03.569Z,17.92
2022-09-15T10:50:02.886Z,17.66
2022-09-15T10:55:03.815Z,17.77
2022-09-15T11:00:03.166Z,17.65
2022-09-15T11:05:03.086Z,17.17
2022-09-15T11:10:02.469Z,17.61
2022-09-15T11:15:03.492Z,17.99
2022-09-15T11:20:02.906Z,18.14
2022-09-15T11:25:02.878Z,18.05
2022-09-15T11:30:03.270Z,17.81
2022-09-15T11:35:03.140Z,18.2
2022-09-15T11:40:03.405Z,18.63
2022-09-15T11:45:03.344Z,18.82
2022-09-15T11:50:02.711Z,18.51
2022-09-15T11:55:03.601Z,18.3
2022-09-15T12:00:03.277Z,18.63
2022-09-15T12:05:03.195Z,18.86
2022-09-15T12:10:02.586Z,18.12
2022-09-15T12:15:03.562Z,18.02
2022-09-15T12:20:03.042Z,18
2022-09-15T12:25:02.883Z,18.73
2022-09-15T12:30:03.346Z,19.23
2022-09-15T12:35:03.306Z,19.85
2022-09-15T12:40:02.870Z,20.21
2022-09-15T12:45:02.690Z,18.8
2022-09-15T12:50:03.069Z,18.17
2022-09-15T12:55:03.870Z,18.58
2022-09-15T13:00:02.413Z,19.12
2022-09-15T13:05:03.354Z,19.22
2022-09-15T13:10:02.877Z,20.33
2022-09-15T13:15:02.683Z,19.16
2022-09-15T13:20:03.228Z,18.65
2022-09-15T13:25:02.791Z,19.02
2022-09-15T13:30:03.113Z,18.51
2022-09-15T13:35:20.996Z,18.88
2022-09-15T13:40:02.867Z,19.25
2022-09-15T13:45:03.029Z,19.64
2022-09-15T13:50:02.392Z,19.75
2022-09-15T13:55:04.261Z,18.63
2022-09-15T14:00:02.949Z,18.51
2022-09-15T14:05:02.909Z,18.46
2022-09-15T14:10:03.345Z,18.53
2022-09-15T14:15:03.219Z,18.85
2022-09-15T14:20:02.598Z,18.83
2022-09-15T14:25:03.591Z,18.33
2022-09-15T14:30:03.016Z,18.48
2022-09-15T14:35:02.626Z,20.78
2022-09-15T14:40:03.201Z,20.43
2022-09-15T14:50:03.252Z,18.63
2022-09-15T14:55:04.013Z,18.13
2022-09-15T15:00:02.530Z,18.12
2022-09-15T15:05:03.427Z,18.29
2022-09-15T15:10:02.806Z,18.24
2022-09-15T15:15:02.743Z,18.06
2022-09-15T15:20:03.164Z,18.03
2022-09-15T15:25:03.145Z,18.36
2022-09-15T15:30:02.544Z,18.98
2022-09-15T15:35:03.376Z,18.16
2022-09-15T15:40:02.918Z,17.84
2022-09-15T15:45:02.485Z,17.81
2022-09-15T15:50:15.063Z,18.26
2022-09-15T15:55:03.898Z,19.63
2022-09-15T16:00:03.415Z,19.39
2022-09-15T16:05:03.045Z,18.76
2022-09-15T16:10:02.370Z,17.64
2022-09-15T16:15:03.320Z,17.44
2022-09-15T16:25:03.288Z,16.9
2022-09-15T16:30:03.260Z,16.77
2022-09-15T16:35:02.577Z,16.71
2022-09-15T16:40:03.832Z,16.75
2022-09-15T16:45:03.247Z,16.65
2022-09-15T16:50:02.709Z,16.61
2022-09-15T16:55:04.747Z,16.65
2022-09-15T17:00:03.145Z,16.49
2022-09-15T17:05:03.066Z,16.4
2022-09-15T17:10:02.496Z,16.26
2022-09-15T17:15:03.457Z,16.24
2022-09-15T17:20:03.057Z,16.31
2022-09-15T17:25:02.634Z,16.28
2022-09-15T17:30:03.305Z,16.19
2022-09-15T17:35:02.936Z,16.09
2022-09-15T17:40:02.772Z,16.03
2022-09-15T17:45:03.319Z,15.95
2022-09-15T17:50:02.889Z,15.8
2022-09-15T17:55:03.853Z,15.9
2022-09-15T18:00:02.402Z,15.76
2022-09-15T18:05:02.993Z,15.71
2022-09-15T18:10:02.638Z,15.69
2022-09-15T18:15:02.678Z,15.46
2022-09-15T18:20:03.093Z,15.23
2022-09-15T18:25:03.027Z,14.84
2022-09-15T18:30:02.525Z,14.52
2022-09-15T18:35:03.327Z,14.35
2022-09-15T18:40:02.795Z,14.09
2022-09-15T18:45:02.644Z,13.77
2022-09-15T18:50:02.966Z,13.53
2022-09-15T18:55:03.742Z,13.35
2022-09-15T19:00:03.339Z,13.12
2022-09-15T19:05:03.312Z,12.95
2022-09-15T19:10:02.743Z,13.06
2022-09-15T19:15:02.676Z,13.33
2022-09-15T19:20:03.060Z,13.47
2022-09-15T19:25:02.962Z,13.47
2022-09-15T19:30:03.258Z,13.65
2022-09-15T19:35:03.103Z,13.74
2022-09-15T19:40:02.587Z,13.75
2022-09-15T19:45:03.626Z,13.77
2022-09-15T19:50:03.036Z,13.74
2022-09-15T19:55:04.073Z,13.79
2022-09-15T20:00:02.398Z,13.58
2022-09-15T20:05:02.932Z,13.29
2022-09-15T20:10:02.439Z,13.14
2022-09-15T20:15:03.375Z,13.25
2022-09-15T20:20:02.847Z,13.27
2022-09-15T20:25:02.745Z,13.41
2022-09-15T20:30:03.552Z,13.48
2022-09-15T20:35:02.838Z,13.41
2022-09-15T20:40:03.001Z,13.31
2022-09-15T20:45:03.155Z,13.08
2022-09-15T20:50:03.038Z,12.93
2022-09-15T20:55:04.004Z,12.81
2022-09-15T21:00:02.788Z,13.03
2022-09-15T21:05:03.069Z,13.31
2022-09-15T21:10:02.970Z,13.46
2022-09-15T21:15:03.367Z,13.79
2022-09-15T21:20:03.367Z,14.01
2022-09-15T21:25:02.699Z,14.12
2022-09-15T21:30:03.571Z,14.08
2022-09-15T21:35:02.857Z,14.23
2022-09-15T21:40:03.366Z,14.13
2022-09-15T21:45:02.527Z,14.06
2022-09-15T21:50:03.383Z,13.92
2022-09-15T21:55:04.190Z,14.01
2022-09-15T22:00:03.755Z,14
2022-09-15T22:05:02.980Z,13.93
2022-09-15T22:10:03.138Z,13.66
2022-09-15T22:15:02.653Z,13.56
2022-09-15T22:20:03.294Z,13.43
2022-09-15T22:25:03.165Z,13.2
2022-09-15T22:30:02.844Z,13.15
2022-09-15T22:35:03.385Z,13.09
2022-09-15T22:40:03.399Z,13.07
2022-09-15T22:45:02.537Z,12.93
2022-09-15T22:50:03.388Z,12.88
2022-09-15T22:55:04.475Z,12.73
2022-09-15T23:00:03.674Z,12.66
2022-09-15T23:05:03.111Z,12.63
2022-09-15T23:10:02.953Z,12.58
2022-09-15T23:15:03.615Z,12.6
2022-09-15T23:20:03.378Z,12.61
2022-09-15T23:25:03.058Z,12.58
2022-09-15T23:30:02.892Z,12.46
2022-09-15T23:35:02.646Z,12.54
2022-09-15T23:40:03.594Z,12.5
2022-09-15T23:45:02.940Z,12.44
2022-09-15T23:50:02.813Z,12.49
2022-09-15T23:55:04.551Z,12.49
